createdAt,value
2022-08-26T00:01:32.970Z,12.63
2022-08-26T00:05:32.189Z,13.70
2022-08-26T00:09:29.527Z,12.40
2022-08-26T00:13:26.719Z,13.60
2022-08-26T00:17:24.197Z,13.63
2022-08-26T00:21:24.901Z,13.48
2022-08-26T00:25:22.703Z,13.60
2022-08-26T00:29:21.272Z,13.55
2022-08-26T00:33:21.440Z,14.18
2022-08-26T00:37:18.759Z,14.32
2022-08-26T00:41:18.107Z,14.35
2022-08-26T00:45:16.266Z,14.95
2022-08-26T00:49:36.231Z,15.73
2022-08-26T00:53:43.566Z,14.20
2022-08-26T00:57:41.568Z,13.98
2022-08-26T01:01:43.180Z,13.77
2022-08-26T01:05:44.035Z,13.25
2022-08-26T01:09:41.187Z,14.85
2022-08-26T01:13:40.526Z,14.90
2022-08-26T01:17:38.743Z,13.75
2022-08-26T01:21:54.744Z,13.88
2022-08-26T01:26:05.078Z,15.07
2022-08-26T01:30:05.659Z,14.68
2022-08-26T01:34:17.823Z,13.57
2022-08-26T01:38:18.431Z,14.30
2022-08-26T01:42:19.848Z,13.80
2022-08-26T01:46:19.783Z,13.80
2022-08-26T01:50:30.739Z,14.05
2022-08-26T01:54:28.044Z,13.98
2022-08-26T01:58:36.603Z,15.30
2022-08-26T02:02:33.804Z,14.63
2022-08-26T02:06:31.989Z,13.82
2022-08-26T02:10:29.823Z,15.82
2022-08-26T02:14:34.835Z,14.88
2022-08-26T02:18:36.610Z,14.68
2022-08-26T02:22:34.653Z,13.77
2022-08-26T02:26:31.681Z,15.30
2022-08-26T02:30:33.692Z,15.93
2022-08-26T02:34:33.176Z,15.68
2022-08-26T02:38:30.282Z,16.98
2022-08-26T02:42:28.494Z,15.07
2022-08-26T02:46:29.852Z,16.23
2022-08-26T02:50:27.555Z,15.13
2022-08-26T02:54:24.591Z,15.52
2022-08-26T02:58:21.733Z,15.50
2022-08-26T03:02:18.823Z,15.15
2022-08-26T03:06:16.071Z,15.30
2022-08-26T03:10:13.423Z,16.27
2022-08-26T03:14:12.011Z,16.48
2022-08-26T03:18:09.837Z,15.73
2022-08-26T03:22:07.368Z,16.45
2022-08-26T03:26:05.851Z,16.08
2022-08-26T03:30:22.787Z,16.45
2022-08-26T03:34:20.189Z,15.65
2022-08-26T03:38:25.805Z,15.95
2022-08-26T03:42:23.344Z,16.85
2022-08-26T03:46:20.971Z,17.05
2022-08-26T03:50:23.033Z,17.65
2022-08-26T03:54:21.383Z,17.23
2022-08-26T03:58:19.056Z,16.83
2022-08-26T04:02:16.771Z,16.33
2022-08-26T04:06:14.894Z,14.77
2022-08-26T04:10:20.276Z,16.27
2022-08-26T04:14:23.490Z,16.90
2022-08-26T04:18:21.533Z,17.33
2022-08-26T04:22:24.018Z,16.45
2022-08-26T04:26:23.903Z,16.45
2022-08-26T04:30:21.955Z,15.32
2022-08-26T04:34:19.454Z,16.60
2022-08-26T04:38:16.987Z,15.35
2022-08-26T04:42:21.036Z,14.95
2022-08-26T04:46:25.456Z,16.40
2022-08-26T04:50:23.866Z,14.82
2022-08-26T04:54:22.167Z,14.88
2022-08-26T04:58:22.351Z,16.00
2022-08-26T05:02:20.914Z,16.63
2022-08-26T05:06:19.505Z,15.57
2022-08-26T05:10:16.555Z,14.50
2022-08-26T05:14:16.143Z,14.75
2022-08-26T05:18:16.516Z,15.23
2022-08-26T05:22:14.584Z,14.57
2022-08-26T05:26:12.091Z,14.88
2022-08-26T05:30:13.922Z,15.50
2022-08-26T05:34:11.042Z,15.95
2022-08-26T05:38:13.436Z,14.75
2022-08-26T05:42:10.464Z,14.25
2022-08-26T05:46:08.136Z,14.52
2022-08-26T05:50:06.115Z,14.63
2022-08-26T05:54:04.159Z,15.15
2022-08-26T05:58:02.769Z,13.80
2022-08-26T06:01:59.929Z,14.45
2022-08-26T06:05:57.248Z,16.30
2022-08-26T06:10:01.624Z,14.27
2022-08-26T06:14:11.852Z,15.70
2022-08-26T06:18:09.462Z,16.17
2022-08-26T06:22:27.162Z,16.70
2022-08-26T06:26:24.426Z,16.15
2022-08-26T06:30:21.886Z,17.02
2022-08-26T06:34:20.136Z,16.60
2022-08-26T06:38:17.939Z,16.05
2022-08-26T06:42:14.937Z,16.33
2022-08-26T06:46:17.298Z,14.88
2022-08-26T06:50:14.369Z,15.85
2022-08-26T06:54:11.672Z,16.25
2022-08-26T06:58:09.919Z,15.90
2022-08-26T07:02:07.434Z,14.60
2022-08-26T07:06:05.574Z,15.35
2022-08-26T07:10:05.779Z,16.00
2022-08-26T07:14:04.457Z,14.18
2022-08-26T07:18:03.208Z,14.77
2022-08-26T07:22:04.217Z,12.73
2022-08-26T07:26:11.564Z,13.13
2022-08-26T07:30:09.528Z,14.05
2022-08-26T07:34:13.972Z,12.95
2022-08-26T07:38:12.889Z,13.55
2022-08-26T07:42:13.815Z,12.38
2022-08-26T07:46:18.610Z,11.55
2022-08-26T07:50:49.549Z,11.98
2022-08-26T07:54:41.558Z,11.98
2022-08-26T07:58:38.919Z,12.93
2022-08-26T08:02:38.504Z,11.77
2022-08-26T08:06:37.522Z,11.40
2022-08-26T08:10:36.605Z,12.05
2022-08-26T08:14:36.523Z,12.48
2022-08-26T08:18:34.076Z,12.90
2022-08-26T08:22:32.556Z,11.52
2022-08-26T08:26:30.082Z,12.18
2022-08-26T08:30:28.508Z,13.82
2022-08-26T08:34:28.706Z,12.40
2022-08-26T08:38:27.287Z,11.38
2022-08-26T08:42:45.761Z,11.52
2022-08-26T08:46:46.912Z,11.75
2022-08-26T08:50:53.994Z,12.70
2022-08-26T08:54:51.138Z,10.82
2022-08-26T08:59:04.344Z,11.23
2022-08-26T09:03:19.310Z,10.80
2022-08-26T09:07:23.524Z,9.90
2022-08-26T09:11:21.783Z,9.10
2022-08-26T09:15:46.767Z,10.27
2022-08-26T09:19:52.830Z,9.75
2022-08-26T09:23:52.907Z,8.60
2022-08-26T09:27:53.508Z,8.57
2022-08-26T09:31:52.198Z,8.23
2022-08-26T09:35:52.389Z,8.27
2022-08-26T09:39:49.439Z,8.30
2022-08-26T09:44:14.656Z,8.70
2022-08-26T09:48:29.030Z,7.53
2022-08-26T09:52:27.568Z,8.43
2022-08-26T09:56:35.555Z,7.80
2022-08-26T10:00:58.647Z,7.88
2022-08-26T10:04:59.337Z,8.18
2022-08-26T10:09:10.943Z,7.53
2022-08-26T10:13:42.975Z,7.55
2022-08-26T10:17:51.795Z,7.00
2022-08-26T10:22:07.633Z,6.20
2022-08-26T10:26:15.862Z,7.30
2022-08-26T10:30:19.444Z,6.85
2022-08-26T10:34:17.969Z,7.40
2022-08-26T10:38:22.827Z,7.53
2022-08-26T10:42:37.626Z,7.70
2022-08-26T10:46:45.618Z,6.95
2022-08-26T10:50:47.943Z,7.35
2022-08-26T10:54:56.501Z,7.30
2022-08-26T10:59:16.694Z,7.03
2022-08-26T11:03:54.213Z,7.30
2022-08-26T11:08:20.861Z,6.35
2022-08-26T11:13:05.015Z,6.90
2022-08-26T11:17:02.495Z,6.57
2022-08-26T11:20:59.565Z,7.10
2022-08-26T11:24:56.486Z,6.05
2022-08-26T11:28:53.722Z,6.07
2022-08-26T11:32:56.367Z,6.80
2022-08-26T11:36:59.149Z,6.53
2022-08-26T11:41:09.020Z,6.20
2022-08-26T11:45:39.074Z,6.47
2022-08-26T11:49:37.910Z,6.72
2022-08-26T11:53:41.121Z,5.88
2022-08-26T11:57:52.003Z,6.22
2022-08-26T12:01:53.508Z,5.88
2022-08-26T12:05:53.996Z,6.00
2022-08-26T12:09:59.264Z,6.25
2022-08-26T12:14:16.118Z,6.00
2022-08-26T12:18:30.093Z,6.57
2022-08-26T12:22:32.695Z,6.60
2022-08-26T12:26:37.232Z,6.57
2022-08-26T12:30:34.581Z,6.35
2022-08-26T12:34:31.757Z,7.03
2022-08-26T12:38:32.038Z,8.18
2022-08-26T12:42:42.467Z,9.15
2022-08-26T12:46:39.552Z,9.43
2022-08-26T12:50:47.146Z,8.93
2022-08-26T12:54:59.792Z,8.90
2022-08-26T12:59:23.290Z,8.75
2022-08-26T13:03:35.333Z,10.00
2022-08-26T13:07:32.437Z,6.05
2022-08-26T13:11:45.156Z,5.03
2022-08-26T13:15:42.197Z,5.22
2022-08-26T13:19:39.200Z,6.20
2022-08-26T13:23:40.600Z,6.72
2022-08-26T13:27:39.423Z,5.03
2022-08-26T13:31:39.928Z,5.55
2022-08-26T13:35:36.931Z,5.72
2022-08-26T13:39:34.112Z,6.50
2022-08-26T13:43:31.779Z,8.00
2022-08-26T13:47:28.945Z,8.85
2022-08-26T13:51:27.499Z,9.00
2022-08-26T13:55:28.041Z,8.82
2022-08-26T13:59:25.132Z,9.48
2022-08-26T14:03:22.532Z,8.93
2022-08-26T14:07:19.624Z,7.60
2022-08-26T14:11:17.116Z,7.45
2022-08-26T14:15:16.886Z,7.68
2022-08-26T14:19:14.156Z,8.40
2022-08-26T14:23:13.986Z,8.23
2022-08-26T14:27:13.212Z,7.20
2022-08-26T14:31:10.352Z,7.13
2022-08-26T14:35:10.152Z,6.82
2022-08-26T14:39:11.838Z,7.15
2022-08-26T14:43:09.715Z,6.68
2022-08-26T14:47:07.057Z,7.00
2022-08-26T14:51:05.453Z,6.97
2022-08-26T14:55:02.428Z,7.88
2022-08-26T14:58:59.860Z,6.95
2022-08-26T15:02:58.590Z,6.43
2022-08-26T15:06:58.903Z,6.63
2022-08-26T15:10:56.025Z,6.55
2022-08-26T15:14:53.721Z,6.53
2022-08-26T15:18:51.796Z,6.05
2022-08-26T15:22:48.983Z,6.53
2022-08-26T15:26:49.603Z,7.40
2022-08-26T15:30:46.722Z,7.28
2022-08-26T15:34:44.029Z,7.35
2022-08-26T15:38:42.602Z,7.15
2022-08-26T15:42:39.711Z,7.22
2022-08-26T15:46:38.379Z,7.20
2022-08-26T15:50:35.690Z,7.40
2022-08-26T15:54:32.734Z,7.65
2022-08-26T15:58:29.985Z,8.75
2022-08-26T16:02:31.796Z,8.43
2022-08-26T16:06:33.650Z,9.45
2022-08-26T16:10:34.494Z,10.18
2022-08-26T16:14:31.579Z,10.25
2022-08-26T16:18:28.992Z,10.35
2022-08-26T16:22:27.090Z,10.35
2022-08-26T16:26:32.515Z,10.30
2022-08-26T16:30:29.535Z,11.30
2022-08-26T16:34:26.552Z,10.50
2022-08-26T16:38:23.617Z,11.02
2022-08-26T16:42:20.742Z,11.20
2022-08-26T16:46:18.518Z,10.50
2022-08-26T16:50:17.782Z,10.88
2022-08-26T16:54:14.872Z,9.27
2022-08-26T16:58:11.951Z,11.13
2022-08-26T17:02:11.676Z,8.35
2022-08-26T17:06:11.385Z,8.20
2022-08-26T17:10:34.096Z,7.90
2022-08-26T17:14:50.904Z,8.30
2022-08-26T17:41:00.926Z,8.93
2022-08-26T17:50:49.825Z,9.45
2022-08-26T18:00:47.501Z,9.60
2022-08-26T18:04:49.112Z,9.07
2022-08-26T18:14:43.079Z,9.75
2022-08-26T18:18:53.622Z,9.93
2022-08-26T18:22:54.498Z,11.63
2022-08-26T18:26:51.528Z,9.75
2022-08-26T18:30:48.554Z,9.50
2022-08-26T18:34:45.576Z,9.90
2022-08-26T18:38:42.747Z,9.80
2022-08-26T18:42:41.462Z,9.20
2022-08-26T18:46:38.488Z,8.00
2022-08-26T18:50:40.312Z,6.35
2022-08-26T18:54:37.678Z,6.00
2022-08-26T18:58:34.875Z,5.90
2022-08-26T19:02:32.825Z,5.93
2022-08-26T19:06:33.124Z,7.32
2022-08-26T19:10:30.286Z,8.45
2022-08-26T19:14:28.672Z,7.10
2022-08-26T19:18:26.034Z,6.45
2022-08-26T19:22:23.539Z,6.03
2022-08-26T19:26:20.557Z,6.22
2022-08-26T19:30:17.551Z,7.57
2022-08-26T19:34:15.421Z,8.02
2022-08-26T19:38:16.769Z,7.53
2022-08-26T19:42:14.298Z,8.18
2022-08-26T19:46:20.170Z,7.18
2022-08-26T19:50:17.908Z,7.68
2022-08-26T19:54:15.380Z,7.72
2022-08-26T19:58:12.393Z,8.00
2022-08-26T20:02:11.139Z,8.05
2022-08-26T20:06:13.374Z,8.15
2022-08-26T20:10:13.779Z,7.97
2022-08-26T20:14:10.877Z,7.95
2022-08-26T20:18:26.980Z,7.20
2022-08-26T20:22:24.500Z,7.72
2022-08-26T20:26:21.631Z,8.05
2022-08-26T20:30:18.758Z,8.65
2022-08-26T20:34:18.634Z,8.73
2022-08-26T20:38:18.490Z,7.90
2022-08-26T20:42:20.361Z,8.57
2022-08-26T20:46:24.544Z,7.65
2022-08-26T20:50:24.651Z,7.22
2022-08-26T20:54:28.415Z,7.93
2022-08-26T20:58:26.110Z,7.18
2022-08-26T21:02:23.155Z,7.65
2022-08-26T21:06:21.163Z,7.78
2022-08-26T21:10:18.970Z,7.43
2022-08-26T21:14:19.101Z,7.00
2022-08-26T21:18:16.447Z,7.28
2022-08-26T21:22:14.060Z,7.38
2022-08-26T21:26:15.593Z,7.15
2022-08-26T21:30:16.109Z,7.22
2022-08-26T21:34:18.631Z,8.30
2022-08-26T21:38:17.994Z,7.80
2022-08-26T21:42:15.041Z,9.18
2022-08-26T21:46:16.288Z,8.75
2022-08-26T21:50:16.002Z,10.13
2022-08-26T21:54:14.003Z,7.95
2022-08-26T21:58:12.614Z,7.82
2022-08-26T22:02:10.486Z,7.55
2022-08-26T22:06:08.041Z,7.38
2022-08-26T22:10:05.676Z,7.35
2022-08-26T22:14:03.145Z,8.10
2022-08-26T22:18:00.579Z,8.57
2022-08-26T22:21:58.759Z,7.97
2022-08-26T22:25:57.173Z,8.80
2022-08-26T22:29:54.339Z,9.88
2022-08-26T22:33:51.905Z,10.88
2022-08-26T22:37:49.528Z,9.98
2022-08-26T22:41:48.701Z,11.73
2022-08-26T22:45:48.668Z,13.05
2022-08-26T22:49:46.989Z,13.88
2022-08-26T22:53:45.292Z,15.57
2022-08-26T22:57:42.371Z,14.27
2022-08-26T23:01:43.296Z,15.73
2022-08-26T23:05:41.539Z,16.23
2022-08-26T23:09:38.699Z,16.63
2022-08-26T23:13:36.811Z,17.15
2022-08-26T23:17:35.459Z,16.95
2022-08-26T23:21:32.931Z,17.30
2022-08-26T23:25:31.154Z,16.25
2022-08-26T23:29:29.015Z,17.92
2022-08-26T23:33:46.275Z,17.98
2022-08-26T23:37:48.465Z,15.32
2022-08-26T23:41:46.453Z,17.92
2022-08-26T23:45:43.930Z,16.60
2022-08-26T23:49:41.896Z,15.95
2022-08-26T23:53:39.065Z,15.98
2022-08-26T23:57:36.978Z,17.02
